createdAt,value
2022-10-15T00:00:39.967Z,20.98
2022-10-15T00:03:06.670Z,20.45
2022-10-15T00:05:33.329Z,21.20
2022-10-15T00:07:59.884Z,35.00
2022-10-15T00:10:26.533Z,20.30
2022-10-15T00:12:53.171Z,22.52
2022-10-15T00:15:20.037Z,39.17
2022-10-15T00:17:46.745Z,26.40
2022-10-15T00:20:13.531Z,24.27
2022-10-15T00:22:40.472Z,22.95
2022-10-15T00:25:08.389Z,32.60
2022-10-15T00:27:35.881Z,26.02
2022-10-15T00:30:03.799Z,39.17
2022-10-15T00:32:30.794Z,31.98
2022-10-15T00:34:57.424Z,31.38
2022-10-15T00:37:24.783Z,27.40
2022-10-15T00:39:51.499Z,28.05
2022-10-15T00:42:18.181Z,23.90
2022-10-15T00:44:50.697Z,24.70
2022-10-15T00:47:25.341Z,29.23
2022-10-15T00:50:04.967Z,34.42
2022-10-15T00:52:42.560Z,23.75
2022-10-15T00:55:15.917Z,34.17
2022-10-15T00:57:43.972Z,28.42
2022-10-15T01:00:15.345Z,20.30
2022-10-15T01:02:43.925Z,23.45
2022-10-15T01:05:12.376Z,19.35
2022-10-15T01:07:42.183Z,19.70
2022-10-15T01:10:11.099Z,33.30
2022-10-15T01:12:43.449Z,36.03
2022-10-15T01:15:17.036Z,20.23
2022-10-15T01:17:50.626Z,21.63
2022-10-15T01:20:32.410Z,21.63
2022-10-15T01:23:14.150Z,21.75
2022-10-15T01:25:42.059Z,13.73
2022-10-15T01:28:23.957Z,19.30
2022-10-15T01:30:59.899Z,17.52
2022-10-15T01:33:37.542Z,17.52
2022-10-15T01:36:14.743Z,21.52
2022-10-15T01:38:46.943Z,16.13
2022-10-15T01:41:22.517Z,19.58
2022-10-15T01:43:59.936Z,16.75
2022-10-15T01:46:39.027Z,31.33
2022-10-15T01:49:08.081Z,18.08
2022-10-15T01:51:38.112Z,15.68
2022-10-15T01:54:09.518Z,16.52
2022-10-15T01:56:38.125Z,15.48
2022-10-15T01:59:06.030Z,14.98
2022-10-15T02:01:32.860Z,18.35
2022-10-15T02:03:59.687Z,15.80
2022-10-15T02:06:37.138Z,15.45
2022-10-15T02:09:29.731Z,17.73
2022-10-15T02:12:07.273Z,21.27
2022-10-15T02:14:42.023Z,17.13
2022-10-15T02:17:10.740Z,15.85
2022-10-15T02:19:44.233Z,16.13
2022-10-15T02:22:24.939Z,16.77
2022-10-15T02:24:58.204Z,17.95
2022-10-15T02:27:28.161Z,18.42
2022-10-15T02:29:56.695Z,14.50
2022-10-15T02:32:25.771Z,20.55
2022-10-15T02:34:53.691Z,23.67
2022-10-15T02:37:23.166Z,23.88
2022-10-15T02:39:50.368Z,20.98
2022-10-15T02:42:18.920Z,18.83
2022-10-15T02:44:45.833Z,26.98
2022-10-15T02:47:12.629Z,28.20
2022-10-15T02:49:39.528Z,18.20
2022-10-15T02:52:06.436Z,20.17
2022-10-15T02:54:33.049Z,21.13
2022-10-15T02:56:59.700Z,21.48
2022-10-15T02:59:26.286Z,22.15
2022-10-15T03:01:52.929Z,31.20
2022-10-15T03:04:19.683Z,21.65
2022-10-15T03:06:46.405Z,22.98
2022-10-15T03:09:13.547Z,21.13
2022-10-15T03:11:40.244Z,23.73
2022-10-15T03:14:06.850Z,20.05
2022-10-15T03:16:33.498Z,25.85
2022-10-15T03:19:00.104Z,27.23
2022-10-15T03:21:28.673Z,26.60
2022-10-15T03:23:55.281Z,20.17
2022-10-15T03:26:21.897Z,25.15
2022-10-15T03:28:48.600Z,23.48
2022-10-15T03:31:15.298Z,22.45
2022-10-15T03:33:42.048Z,31.92
2022-10-15T03:36:09.281Z,32.92
2022-10-15T03:38:35.944Z,23.25
2022-10-15T03:41:02.560Z,23.75
2022-10-15T03:43:29.212Z,23.80
2022-10-15T03:45:55.838Z,23.40
2022-10-15T03:48:22.690Z,22.75
2022-10-15T03:50:49.275Z,27.25
2022-10-15T03:53:15.941Z,25.23
2022-10-15T03:55:42.592Z,22.00
2022-10-15T03:58:09.218Z,23.67
2022-10-15T04:00:35.866Z,25.45
2022-10-15T04:03:02.552Z,24.67
2022-10-15T04:05:29.283Z,26.67
2022-10-15T04:07:56.943Z,21.23
2022-10-15T04:10:23.520Z,19.35
2022-10-15T04:12:50.537Z,20.98
2022-10-15T04:15:17.187Z,21.58
2022-10-15T04:17:43.845Z,20.83
2022-10-15T04:20:11.012Z,21.30
2022-10-15T04:22:37.883Z,20.65
2022-10-15T04:25:05.388Z,21.92
2022-10-15T04:27:32.126Z,18.80
2022-10-15T04:29:58.723Z,20.30
2022-10-15T04:32:25.574Z,16.80
2022-10-15T04:34:52.326Z,17.20
2022-10-15T04:37:18.896Z,19.20
2022-10-15T04:39:45.487Z,19.25
2022-10-15T04:42:12.102Z,16.15
2022-10-15T04:44:38.747Z,18.23
2022-10-15T04:47:05.369Z,17.13
2022-10-15T04:49:32.025Z,21.70
2022-10-15T04:51:58.850Z,16.83
2022-10-15T04:54:25.429Z,15.93
2022-10-15T04:56:52.022Z,18.67
2022-10-15T04:59:18.715Z,19.38
2022-10-15T05:01:45.339Z,20.10
2022-10-15T05:04:12.628Z,17.67
2022-10-15T05:06:39.243Z,17.00
2022-10-15T05:09:09.028Z,17.38
2022-10-15T05:11:38.333Z,21.40
2022-10-15T05:14:05.658Z,20.60
2022-10-15T05:16:32.733Z,19.50
2022-10-15T05:19:04.239Z,22.60
2022-10-15T05:21:36.203Z,23.42
2022-10-15T05:24:05.307Z,18.10
2022-10-15T05:26:32.648Z,16.20
2022-10-15T05:29:00.526Z,20.80
2022-10-15T05:31:30.176Z,18.90
2022-10-15T05:33:56.815Z,20.48
2022-10-15T05:36:27.981Z,22.45
2022-10-15T05:38:57.398Z,21.15
2022-10-15T05:41:25.806Z,23.08
2022-10-15T05:43:54.529Z,25.20
2022-10-15T05:46:21.759Z,21.85
2022-10-15T05:48:50.143Z,21.15
2022-10-15T05:51:17.303Z,24.38
2022-10-15T05:53:46.247Z,27.30
2022-10-15T05:56:14.263Z,24.20
2022-10-15T05:58:41.237Z,27.13
2022-10-15T06:01:10.935Z,30.98
2022-10-15T06:03:38.832Z,25.38
2022-10-15T06:06:12.972Z,25.50
2022-10-15T06:08:39.609Z,27.42
2022-10-15T06:11:08.592Z,23.20
2022-10-15T06:13:38.580Z,23.00
2022-10-15T06:16:05.521Z,32.80
2022-10-15T06:18:32.429Z,30.27
2022-10-15T06:20:59.045Z,22.95
2022-10-15T06:23:25.737Z,27.05
2022-10-15T06:25:52.334Z,26.17
2022-10-15T06:28:19.118Z,26.88
2022-10-15T06:30:45.878Z,30.45
2022-10-15T06:33:13.095Z,27.63
2022-10-15T06:35:41.108Z,28.05
2022-10-15T06:38:07.733Z,28.27
2022-10-15T06:40:34.359Z,28.35
2022-10-15T06:43:08.779Z,27.00
2022-10-15T06:45:38.006Z,28.15
2022-10-15T06:48:07.135Z,26.38
2022-10-15T06:50:36.800Z,24.40
2022-10-15T06:53:03.946Z,21.73
2022-10-15T06:55:30.743Z,19.48
2022-10-15T06:57:58.064Z,23.40
2022-10-15T07:00:25.537Z,18.70
2022-10-15T07:02:52.318Z,24.20
2022-10-15T07:05:19.891Z,26.25
2022-10-15T07:07:55.341Z,32.38
2022-10-15T07:10:22.883Z,25.57
2022-10-15T07:12:49.678Z,37.80
2022-10-15T07:15:16.935Z,27.27
2022-10-15T07:17:52.440Z,36.40
2022-10-15T07:20:23.525Z,38.63
2022-10-15T07:22:55.716Z,37.55
2022-10-15T07:25:22.340Z,37.17
2022-10-15T07:27:48.930Z,42.22
2022-10-15T07:30:15.652Z,40.28
2022-10-15T07:32:45.575Z,43.25
2022-10-15T07:35:13.677Z,47.83
2022-10-15T07:37:40.784Z,40.53
2022-10-15T07:40:08.127Z,42.20
2022-10-15T07:42:34.855Z,43.95
2022-10-15T07:45:01.479Z,38.63
2022-10-15T07:47:28.130Z,43.55
2022-10-15T07:49:55.133Z,41.15
2022-10-15T07:52:22.146Z,41.17
2022-10-15T07:54:48.991Z,42.30
2022-10-15T07:57:16.509Z,39.58
2022-10-15T07:59:43.259Z,36.45
2022-10-15T08:02:18.351Z,34.97
2022-10-15T08:04:45.257Z,41.10
2022-10-15T08:07:12.318Z,39.95
2022-10-15T08:09:39.129Z,41.05
2022-10-15T08:12:07.008Z,37.25
2022-10-15T08:14:34.957Z,39.67
2022-10-15T08:17:03.896Z,35.53
2022-10-15T08:19:30.810Z,37.95
2022-10-15T08:21:58.082Z,34.65
2022-10-15T08:24:24.920Z,35.58
2022-10-15T08:26:51.752Z,33.72
2022-10-15T08:29:18.389Z,36.25
2022-10-15T08:31:44.993Z,33.95
2022-10-15T08:34:11.608Z,41.55
2022-10-15T08:36:38.241Z,36.10
2022-10-15T08:39:07.289Z,37.97
2022-10-15T08:41:34.926Z,39.88
2022-10-15T08:44:02.307Z,43.72
2022-10-15T08:46:38.237Z,36.50
2022-10-15T08:49:05.376Z,43.33
2022-10-15T08:51:41.036Z,36.70
2022-10-15T08:54:15.208Z,40.45
2022-10-15T08:56:46.623Z,45.25
2022-10-15T08:59:36.769Z,47.10
2022-10-15T09:02:13.580Z,45.53
2022-10-15T09:04:55.637Z,56.17
2022-10-15T09:07:43.451Z,47.83
2022-10-15T09:10:18.027Z,49.55
2022-10-15T09:12:58.225Z,57.33
2022-10-15T09:15:27.956Z,47.88
2022-10-15T09:17:55.537Z,57.15
2022-10-15T09:20:30.730Z,55.97
2022-10-15T09:23:00.898Z,56.95
2022-10-15T09:25:35.222Z,54.67
2022-10-15T09:28:10.537Z,56.83
2022-10-15T09:30:40.673Z,60.35
2022-10-15T09:33:23.597Z,58.13
2022-10-15T09:35:56.014Z,53.05
2022-10-15T09:38:34.395Z,55.30
2022-10-15T09:41:16.370Z,44.70
2022-10-15T09:43:47.646Z,43.70
2022-10-15T09:46:14.307Z,42.78
2022-10-15T09:48:48.494Z,38.05
2022-10-15T09:51:27.983Z,40.05
2022-10-15T09:54:08.388Z,40.85
2022-10-15T09:56:48.415Z,41.30
2022-10-15T09:59:17.792Z,37.72
2022-10-15T10:02:01.787Z,37.17
2022-10-15T10:04:32.137Z,43.10
2022-10-15T10:07:02.486Z,33.97
2022-10-15T10:09:33.794Z,37.55
2022-10-15T10:12:04.038Z,35.38
2022-10-15T10:14:36.348Z,29.77
2022-10-15T10:17:18.242Z,32.83
2022-10-15T10:20:02.117Z,27.65
2022-10-15T10:22:28.932Z,29.88
2022-10-15T10:24:55.558Z,31.80
2022-10-15T10:27:25.416Z,34.90
2022-10-15T10:29:59.993Z,35.03
2022-10-15T10:32:30.744Z,25.67
2022-10-15T10:34:59.334Z,15.15
2022-10-15T10:37:27.227Z,12.00
2022-10-15T10:40:00.473Z,13.82
2022-10-15T10:42:31.642Z,13.15
2022-10-15T10:45:23.252Z,18.75
2022-10-15T10:47:50.404Z,19.67
2022-10-15T10:50:34.597Z,20.17
2022-10-15T10:53:22.251Z,20.05
2022-10-15T10:55:50.627Z,21.23
2022-10-15T10:58:23.544Z,19.48
2022-10-15T11:00:55.171Z,16.08
2022-10-15T11:03:38.561Z,20.02
2022-10-15T11:06:35.648Z,20.40
2022-10-15T11:09:26.073Z,13.55
2022-10-15T11:12:30.140Z,13.52
2022-10-15T11:15:20.057Z,13.98
2022-10-15T11:18:00.196Z,15.45
2022-10-15T11:20:58.419Z,14.00
2022-10-15T11:23:39.783Z,13.15
2022-10-15T11:26:21.729Z,13.68
2022-10-15T11:29:01.878Z,14.55
2022-10-15T11:32:01.633Z,16.23
2022-10-15T11:34:52.849Z,17.95
2022-10-15T11:37:35.806Z,17.77
2022-10-15T11:40:18.914Z,15.40
2022-10-15T11:42:56.619Z,20.90
2022-10-15T11:45:24.241Z,22.05
2022-10-15T11:47:55.993Z,14.95
2022-10-15T11:50:28.501Z,17.05
2022-10-15T11:53:18.662Z,16.25
2022-10-15T11:56:15.835Z,15.18
2022-10-15T11:59:01.172Z,15.27
2022-10-15T12:01:43.056Z,13.38
2022-10-15T12:04:16.417Z,12.55
2022-10-15T12:06:49.634Z,13.88
2022-10-15T12:09:25.667Z,15.13
2022-10-15T12:12:07.155Z,17.70
2022-10-15T12:14:43.462Z,11.35
2022-10-15T12:19:47.164Z,11.32
2022-10-15T12:22:33.959Z,10.32
2022-10-15T12:25:01.656Z,6.10
2022-10-15T12:27:34.630Z,6.05
2022-10-15T12:30:02.288Z,7.55
2022-10-15T12:32:37.949Z,6.68
2022-10-15T12:35:35.240Z,9.93
2022-10-15T12:40:55.081Z,10.65
2022-10-15T12:43:22.136Z,9.60
2022-10-15T12:45:53.562Z,6.45
2022-10-15T12:48:30.946Z,8.48
2022-10-15T12:51:32.841Z,7.72
2022-10-15T12:54:00.806Z,10.50
2022-10-15T12:56:38.521Z,7.80
2022-10-15T12:59:30.038Z,10.18
2022-10-15T13:01:56.785Z,8.82
2022-10-15T13:04:23.885Z,7.88
2022-10-15T13:06:51.529Z,7.10
2022-10-15T13:09:28.647Z,7.80
2022-10-15T13:12:00.421Z,7.75
2022-10-15T13:14:30.949Z,8.63
2022-10-15T13:16:58.590Z,7.78
2022-10-15T13:19:30.250Z,7.80
2022-10-15T13:22:00.163Z,9.52
2022-10-15T13:24:32.221Z,7.18
2022-10-15T13:27:00.741Z,7.35
2022-10-15T13:29:28.310Z,8.18
2022-10-15T13:31:57.616Z,4.82
2022-10-15T13:34:35.679Z,6.85
2022-10-15T13:37:04.766Z,3.97
2022-10-15T13:39:50.266Z,5.22
2022-10-15T13:42:20.942Z,5.38
2022-10-15T13:45:04.421Z,4.82
2022-10-15T13:47:34.432Z,4.05
2022-10-15T13:50:19.140Z,3.97
2022-10-15T13:52:49.572Z,5.15
2022-10-15T13:55:19.664Z,5.72
2022-10-15T13:57:48.838Z,3.47
2022-10-15T14:00:26.495Z,4.32
2022-10-15T14:03:13.577Z,7.50
2022-10-15T14:05:40.671Z,12.02
2022-10-15T14:08:15.391Z,7.32
2022-10-15T14:10:42.345Z,6.15
2022-10-15T14:13:11.500Z,13.30
2022-10-15T14:15:44.743Z,8.38
2022-10-15T14:18:14.190Z,6.30
2022-10-15T14:20:47.165Z,5.07
2022-10-15T14:23:20.506Z,8.75
2022-10-15T14:25:53.958Z,4.80
2022-10-15T14:28:22.739Z,5.55
2022-10-15T14:30:49.759Z,6.18
2022-10-15T14:33:31.549Z,5.60
2022-10-15T14:36:11.716Z,7.90
2022-10-15T14:38:39.112Z,7.00
2022-10-15T14:41:21.437Z,10.10
2022-10-15T14:44:02.040Z,10.18
2022-10-15T14:46:38.135Z,4.93
2022-10-15T14:49:17.906Z,5.55
2022-10-15T14:51:45.480Z,7.13
2022-10-15T14:54:20.206Z,5.43
2022-10-15T14:56:49.077Z,7.85
2022-10-15T14:59:19.787Z,206.43
2022-10-15T15:01:59.977Z,48.60
2022-10-15T15:04:36.214Z,20.42
2022-10-15T15:07:02.876Z,14.27
2022-10-15T15:09:29.532Z,12.05
2022-10-15T15:11:56.475Z,10.90
2022-10-15T15:14:25.673Z,13.88
2022-10-15T15:16:52.830Z,10.45
2022-10-15T15:19:19.673Z,9.35
2022-10-15T15:21:46.806Z,13.30
2022-10-15T15:24:13.580Z,11.13
2022-10-15T15:26:40.280Z,14.13
2022-10-15T15:29:14.103Z,9.10
2022-10-15T15:31:41.122Z,16.63
2022-10-15T15:34:07.924Z,8.80
2022-10-15T15:36:34.591Z,8.43
2022-10-15T15:39:01.436Z,11.52
2022-10-15T15:41:28.335Z,12.25
2022-10-15T15:43:55.146Z,10.00
2022-10-15T15:46:21.978Z,12.45
2022-10-15T15:48:48.620Z,10.55
2022-10-15T15:51:21.939Z,11.18
2022-10-15T15:53:49.215Z,14.02
2022-10-15T15:56:15.878Z,19.85
2022-10-15T15:58:42.647Z,16.83
2022-10-15T16:01:09.755Z,20.77
2022-10-15T16:03:36.466Z,21.63
2022-10-15T16:06:06.385Z,26.38
2022-10-15T16:08:35.345Z,18.65
2022-10-15T16:11:03.325Z,57.40
2022-10-15T16:13:30.499Z,57.30
2022-10-15T16:15:57.713Z,28.40
2022-10-15T16:18:24.584Z,24.27
2022-10-15T16:20:51.447Z,19.95
2022-10-15T16:23:18.159Z,22.13
2022-10-15T16:25:45.129Z,16.67
2022-10-15T16:28:11.853Z,38.88
2022-10-15T16:30:38.495Z,35.65
2022-10-15T16:35:33.528Z,23.27
2022-10-15T16:38:00.755Z,20.45
2022-10-15T16:40:27.446Z,16.85
2022-10-15T16:42:54.081Z,19.30
2022-10-15T16:45:21.471Z,19.95
2022-10-15T16:47:48.833Z,15.88
2022-10-15T16:50:16.114Z,14.68
2022-10-15T16:52:42.791Z,15.40
2022-10-15T16:55:11.911Z,19.85
2022-10-15T16:57:38.592Z,17.77
2022-10-15T17:00:05.859Z,22.10
2022-10-15T17:02:32.577Z,23.38
2022-10-15T17:04:59.209Z,18.23
2022-10-15T17:07:26.342Z,19.80
2022-10-15T17:09:53.143Z,38.35
2022-10-15T17:12:23.411Z,26.85
2022-10-15T17:14:51.572Z,23.73
2022-10-15T17:17:18.423Z,23.73
2022-10-15T17:19:45.080Z,41.28
2022-10-15T17:22:11.735Z,51.35
2022-10-15T17:24:41.616Z,40.47
2022-10-15T17:27:08.243Z,37.58
2022-10-15T17:29:34.933Z,24.92
2022-10-15T17:32:03.097Z,21.02
2022-10-15T17:34:29.799Z,23.25
2022-10-15T17:36:57.065Z,18.35
2022-10-15T17:39:24.032Z,19.55
2022-10-15T17:41:51.976Z,25.70
2022-10-15T17:44:19.490Z,21.17
2022-10-15T17:46:46.286Z,20.25
2022-10-15T17:49:18.081Z,24.02
2022-10-15T17:51:46.050Z,29.27
2022-10-15T17:54:13.973Z,23.73
2022-10-15T17:56:40.729Z,24.48
2022-10-15T17:59:10.529Z,19.48
2022-10-15T18:01:57.358Z,19.40
2022-10-15T18:04:25.493Z,16.90
2022-10-15T18:06:52.286Z,20.85
2022-10-15T18:09:19.056Z,22.25
2022-10-15T18:11:46.507Z,23.70
2022-10-15T18:14:13.312Z,17.38
2022-10-15T18:16:40.038Z,20.13
2022-10-15T18:19:07.123Z,29.02
2022-10-15T18:21:33.821Z,35.17
2022-10-15T18:24:00.550Z,41.60
2022-10-15T18:26:27.244Z,45.42
2022-10-15T18:28:54.973Z,60.78
2022-10-15T18:31:22.649Z,62.08
2022-10-15T18:33:52.282Z,58.17
2022-10-15T18:36:23.396Z,70.32
2022-10-15T18:38:50.382Z,70.80
2022-10-15T18:41:18.251Z,73.55
2022-10-15T18:43:50.778Z,74.32
2022-10-15T18:46:17.445Z,64.68
2022-10-15T18:48:44.102Z,66.55
2022-10-15T18:51:10.783Z,52.75
2022-10-15T18:53:39.284Z,62.78
2022-10-15T18:56:07.073Z,69.20
2022-10-15T18:58:34.372Z,56.60
2022-10-15T19:01:32.725Z,53.53
2022-10-15T19:04:02.864Z,58.13
2022-10-15T19:06:34.930Z,61.40
2022-10-15T19:09:03.785Z,55.90
2022-10-15T19:11:31.542Z,55.38
2022-10-15T19:13:59.339Z,55.40
2022-10-15T19:16:26.721Z,45.08
2022-10-15T19:18:53.870Z,46.75
2022-10-15T19:21:20.951Z,47.60
2022-10-15T19:23:47.786Z,47.50
2022-10-15T19:26:15.756Z,40.22
2022-10-15T19:28:42.604Z,41.25
2022-10-15T19:31:12.567Z,42.67
2022-10-15T19:33:39.575Z,38.78
2022-10-15T19:36:06.737Z,39.03
2022-10-15T19:38:33.858Z,41.17
2022-10-15T19:41:04.356Z,39.25
2022-10-15T19:43:31.039Z,41.50
2022-10-15T19:46:02.799Z,38.45
2022-10-15T19:48:29.473Z,41.70
2022-10-15T19:50:56.152Z,39.47
2022-10-15T19:53:22.784Z,30.85
2022-10-15T19:55:58.799Z,38.08
2022-10-15T19:58:26.264Z,33.92
2022-10-15T20:00:54.078Z,31.48
2022-10-15T20:03:21.733Z,31.23
2022-10-15T20:05:48.620Z,30.75
2022-10-15T20:08:16.263Z,35.15
2022-10-15T20:10:44.736Z,29.10
2022-10-15T20:13:12.667Z,28.23
2022-10-15T20:15:41.862Z,33.38
2022-10-15T20:18:09.098Z,33.80
2022-10-15T20:20:37.370Z,38.58
2022-10-15T20:23:04.080Z,39.42
2022-10-15T20:25:30.793Z,36.10
2022-10-15T20:27:57.446Z,30.30
2022-10-15T20:30:24.168Z,25.88
2022-10-15T20:32:50.855Z,25.83
2022-10-15T20:35:19.868Z,32.75
2022-10-15T20:37:47.633Z,28.02
2022-10-15T20:40:14.803Z,27.70
2022-10-15T20:42:41.485Z,26.77
2022-10-15T20:45:14.297Z,27.60
2022-10-15T20:47:50.016Z,31.25
2022-10-15T20:50:22.569Z,30.02
2022-10-15T20:52:49.329Z,33.63
2022-10-15T20:55:16.299Z,36.67
2022-10-15T20:57:43.534Z,53.50
2022-10-15T21:00:10.995Z,25.95
2022-10-15T21:02:37.715Z,29.90
2022-10-15T21:05:04.666Z,29.73
2022-10-15T21:07:31.387Z,26.83
2022-10-15T21:09:58.798Z,32.65
2022-10-15T21:12:28.916Z,26.05
2022-10-15T21:14:56.499Z,25.80
2022-10-15T21:17:23.444Z,25.35
2022-10-15T21:19:52.785Z,20.88
2022-10-15T21:22:20.353Z,20.83
2022-10-15T21:24:50.177Z,19.95
2022-10-15T21:27:16.935Z,24.08
2022-10-15T21:29:45.125Z,21.60
2022-10-15T21:32:13.353Z,26.35
2022-10-15T21:37:07.555Z,22.00
2022-10-15T21:39:34.233Z,60.40
2022-10-15T21:42:00.849Z,22.67
2022-10-15T21:44:27.564Z,76.38
2022-10-15T21:46:54.202Z,22.17
2022-10-15T21:49:20.945Z,27.88
2022-10-15T21:51:47.555Z,36.70
2022-10-15T21:54:14.215Z,35.03
2022-10-15T21:56:40.841Z,36.72
2022-10-15T21:59:07.652Z,24.65
2022-10-15T22:01:37.721Z,25.13
2022-10-15T22:04:08.264Z,22.15
2022-10-15T22:06:35.813Z,25.88
2022-10-15T22:09:03.873Z,32.40
2022-10-15T22:11:34.146Z,29.67
2022-10-15T22:14:04.049Z,21.70
2022-10-15T22:16:33.768Z,17.00
2022-10-15T22:19:00.433Z,22.73
2022-10-15T22:21:29.992Z,15.60
2022-10-15T22:24:00.613Z,16.08
2022-10-15T22:26:31.053Z,31.00
2022-10-15T22:29:00.415Z,20.45
2022-10-15T22:31:27.911Z,37.28
2022-10-15T22:33:54.961Z,33.13
2022-10-15T22:36:25.904Z,21.35
2022-10-15T22:41:22.934Z,21.73
2022-10-15T22:43:49.933Z,18.77
2022-10-15T22:46:16.730Z,19.73
2022-10-15T22:48:43.573Z,16.88
2022-10-15T22:51:12.971Z,17.63
2022-10-15T22:53:40.500Z,17.50
2022-10-15T22:56:11.961Z,17.83
2022-10-15T22:58:38.955Z,20.13
2022-10-15T23:01:08.687Z,13.95
2022-10-15T23:03:36.084Z,22.10
2022-10-15T23:06:03.280Z,17.80
2022-10-15T23:08:31.852Z,18.10
2022-10-15T23:11:09.201Z,13.85
2022-10-15T23:13:37.391Z,13.48
2022-10-15T23:16:11.223Z,15.13
2022-10-15T23:18:38.197Z,16.83
2022-10-15T23:21:10.429Z,15.07
2022-10-15T23:23:37.088Z,11.55
2022-10-15T23:26:03.772Z,13.70
2022-10-15T23:28:30.465Z,19.23
2022-10-15T23:30:57.182Z,23.38
2022-10-15T23:33:24.474Z,22.98
2022-10-15T23:36:01.528Z,25.13
2022-10-15T23:38:29.194Z,19.73
2022-10-15T23:41:06.359Z,19.90
2022-10-15T23:43:33.511Z,26.73
2022-10-15T23:46:00.931Z,27.00
2022-10-15T23:48:28.554Z,26.55
2022-10-15T23:50:59.288Z,26.77
2022-10-15T23:53:29.170Z,36.55
2022-10-15T23:55:55.825Z,28.10
2022-10-15T23:58:22.475Z,29.20
